Time;durP1;ratioP1;P1;durP2;ratioP2;P2;SDS_P1;SDS_P2;PMS_P1;PMS_P2;Temp;Humidity;BMP_temperature;BMP_pressure;BME280_temperature;BME280_humidity;BME280_pressure;Samples;Min_cycle;Max_cycle;Signal;HPM_P1;HPM_P2
2021/08/11 00:01:49;;;;;;;;;;;17.70;99.10;;;17.18;92.74;100757.91;4971081;28;19983;-81
2021/08/11 00:04:16;;;;;;;;;;;17.70;99.20;;;17.19;92.85;100758.75;4971349;28;19926;-82
2021/08/11 00:06:43;;;;;;;;;;;17.70;99.30;;;17.19;92.74;100758.75;4969508;28;19980;-81
2021/08/11 00:09:10;;;;;;;;;;;17.70;99.30;;;17.18;92.92;100757.91;4971013;28;19961;-81
2021/08/11 00:11:38;;;;;;;;;;;17.70;99.40;;;17.22;92.76;100763.00;4971145;28;19926;-81
2021/08/11 00:14:05;;;;;;;;;;;17.70;99.60;;;17.20;92.98;100761.28;4971204;28;19957;-81
2021/08/11 00:16:32;;;;;;;;;;;17.70;99.70;;;17.20;92.95;100764.03;4971116;28;19922;-81
2021/08/11 00:18:59;;;;;;;;;;;17.70;99.60;;;17.20;92.60;100765.94;4970775;28;20020;-81
2021/08/11 00:21:26;;;;;;;;;;;17.70;99.30;;;17.19;92.75;100761.50;4970951;28;19965;-81
2021/08/11 00:23:53;;;;;;;;;;;17.70;99.40;;;17.18;92.71;100760.66;4971043;28;20550;-81
2021/08/11 00:26:20;;;;;;;;;;;17.60;99.30;;;17.18;92.37;100760.66;4970773;28;19922;-81
2021/08/11 00:28:49;;;;;;;;;;;17.60;99.20;;;17.15;92.51;100758.38;4970674;28;20106;-81
2021/08/11 00:31:16;;;;;;;;;;;17.60;99.30;;;17.14;92.51;100762.19;4953406;28;19969;-81
2021/08/11 00:33:43;;;;;;;;;;;17.50;99.40;;;17.11;92.77;100750.78;4969256;28;20036;-81
2021/08/11 00:36:10;;;;;;;;;;;17.60;99.50;;;17.12;93.06;100753.31;4969059;28;20554;-81
2021/08/11 00:38:38;;;;;;;;;;;17.60;99.70;;;17.10;93.31;100760.13;4953071;28;19980;-81
2021/08/11 00:41:10;;;;;;;;;;;17.60;99.80;;;17.12;93.59;100756.06;4969257;28;19929;-81
2021/08/11 00:43:38;;;;;;;;;;;17.60;99.90;;;17.10;94.21;100758.19;4968794;28;19933;-81
2021/08/11 00:46:10;;;;;;;;;;;17.70;99.90;;;17.08;94.72;100752.06;4952997;28;19926;-81
2021/08/11 00:48:38;;;;;;;;;;;17.70;99.90;;;17.11;94.60;100757.13;4953151;28;19941;-81
2021/08/11 00:51:07;;;;;;;;;;;17.70;99.90;;;17.13;94.93;100760.47;4969112;28;19936;-81
2021/08/11 00:53:36;;;;;;;;;;;17.80;99.90;;;17.10;95.59;100749.94;4969167;28;19973;-81
2021/08/11 00:56:04;;;;;;;;;;;17.80;99.90;;;17.11;95.84;100757.13;4968990;28;20321;-81
2021/08/11 00:58:33;;;;;;;;;;;17.80;99.90;;;17.12;95.54;100758.81;4952942;28;19930;-81
2021/08/11 01:01:02;;;;;;;;;;;17.80;99.90;;;17.16;95.66;100764.72;4954066;28;19922;-81
2021/08/11 01:03:30;;;;;;;;;;;17.80;99.90;;;17.16;95.78;100765.56;4956822;28;20072;-82
2021/08/11 01:06:01;;;;;;;;;;;17.90;99.90;;;17.16;96.04;100765.56;4972634;28;19926;-82
2021/08/11 01:08:30;;;;;;;;;;;17.90;99.90;;;17.17;96.25;100764.50;4973022;28;19922;-81
2021/08/11 01:10:59;;;;;;;;;;;17.90;99.90;;;17.17;96.05;100764.50;4972804;28;20449;-82
2021/08/11 01:13:27;;;;;;;;;;;17.90;99.90;;;17.18;96.60;100763.41;4956423;28;20477;-82
2021/08/11 01:15:55;;;;;;;;;;;17.90;99.90;;;17.19;96.53;100764.25;4956505;28;19972;-82
2021/08/11 01:18:27;;;;;;;;;;;17.90;99.90;;;17.23;96.35;100770.16;4956815;28;20409;-82
2021/08/11 01:21:00;;;;;;;;;;;17.90;99.90;;;17.22;96.28;100763.00;4972693;28;19926;-82
2021/08/11 01:23:33;;;;;;;;;;;17.90;99.90;;;17.22;96.51;100771.25;4973042;28;19961;-81
2021/08/11 01:26:04;;;;;;;;;;;17.90;99.90;;;17.24;96.32;100769.94;4972352;28;19929;-82
2021/08/11 01:28:43;;;;;;;;;;;17.90;99.90;;;17.23;96.55;100770.16;4956557;28;19937;-82
2021/08/11 01:31:16;;;;;;;;;;;18.00;99.90;;;17.19;96.76;100773.38;4972492;28;19922;-81
2021/08/11 01:33:52;;;;;;;;;;;18.00;99.90;;;17.23;96.66;100770.16;4956359;28;20303;-81
2021/08/11 01:36:35;;;;;;;;;;;17.90;99.90;;;17.19;97.18;100769.75;4955915;28;19925;-82
2021/08/11 01:39:06;;;;;;;;;;;17.90;99.90;;;17.19;97.02;100775.25;4972206;28;19930;-82
2021/08/11 01:41:36;;;;;;;;;;;17.90;99.90;;;17.20;97.00;100780.53;4956244;28;19926;-81
2021/08/11 01:44:07;;;;;;;;;;;17.90;99.90;;;17.24;96.79;100777.34;4973572;28;20024;-81
2021/08/11 01:46:37;;;;;;;;;;;17.90;99.90;;;17.26;96.50;100781.56;4955701;28;19973;-81
2021/08/11 01:49:08;;;;;;;;;;;17.90;99.90;;;17.24;96.66;100777.34;4971873;28;19953;-81
2021/08/11 01:51:37;;;;;;;;;;;17.90;99.90;;;17.25;96.68;100779.03;4955792;28;19965;-82
2021/08/11 01:54:06;;;;;;;;;;;17.90;99.90;;;17.25;96.59;100784.53;4955993;28;19932;-81
2021/08/11 01:56:35;;;;;;;;;;;17.90;99.90;;;17.24;96.41;100783.69;4971840;28;19929;-81
2021/08/11 01:59:02;;;;;;;;;;;17.90;99.90;;;17.23;96.50;100787.53;4955843;28;20470;-82
2021/08/11 02:01:31;;;;;;;;;;;17.90;99.90;;;17.23;96.50;100786.66;4955726;28;19926;-81
2021/08/11 02:03:58;;;;;;;;;;;17.90;99.90;;;17.20;96.68;100782.47;4956072;28;19941;-82
2021/08/11 02:06:29;;;;;;;;;;;17.90;99.90;;;17.19;96.72;100781.63;4971459;28;19926;-81
2021/08/11 02:09:02;;;;;;;;;;;17.90;99.90;;;17.17;96.78;100778.25;4971845;28;20462;-82
2021/08/11 02:11:30;;;;;;;;;;;17.90;99.90;;;17.18;96.76;100777.16;4970335;28;19926;-81
2021/08/11 02:13:58;;;;;;;;;;;17.90;99.90;;;17.17;96.68;100775.50;4971318;28;19926;-81
2021/08/11 02:16:26;;;;;;;;;;;17.90;99.90;;;17.18;96.60;100774.41;4970802;28;19977;-81
2021/08/11 02:18:54;;;;;;;;;;;17.80;99.90;;;17.19;96.41;100772.50;4955025;28;19925;-81
2021/08/11 02:21:23;;;;;;;;;;;17.80;99.90;;;17.18;96.44;100774.41;4971050;28;19930;-82
2021/08/11 02:23:52;;;;;;;;;;;17.80;99.90;;;17.18;96.54;100768.91;4954903;28;19922;-81
2021/08/11 02:26:24;;;;;;;;;;;17.80;99.90;;;17.19;96.49;100770.63;4970378;28;20387;-81
2021/08/11 02:28:54;;;;;;;;;;;17.80;99.90;;;17.19;96.47;100776.13;4970889;28;19929;-82
2021/08/11 02:31:32;;;;;;;;;;;17.80;99.90;;;17.16;96.60;100770.22;4954959;28;20310;-81
2021/08/11 02:34:05;;;;;;;;;;;17.80;99.90;;;17.15;96.71;100768.50;4954751;28;20358;-81
2021/08/11 02:36:43;;;;;;;;;;;17.80;99.90;;;17.16;97.04;100768.31;4954398;28;20398;-81
2021/08/11 02:39:15;;;;;;;;;;;17.80;99.90;;;17.17;97.10;100771.88;4953197;28;19926;-79
2021/08/11 02:41:47;;;;;;;;;;;17.80;99.90;;;17.16;97.06;100770.22;4966065;28;19950;-79
2021/08/11 02:44:19;;;;;;;;;;;17.80;99.90;;;17.17;97.06;100767.25;4935494;29;19926;-79
2021/08/11 02:46:49;;;;;;;;;;;17.80;99.90;;;17.16;97.00;100771.06;4967252;28;20299;-79
2021/08/11 02:49:22;;;;;;;;;;;17.80;99.90;;;17.18;97.26;100768.09;4935235;29;19937;-79
2021/08/11 02:51:49;;;;;;;;;;;17.80;99.90;;;17.16;97.10;100770.22;4967464;28;19933;-79
2021/08/11 02:54:20;;;;;;;;;;;17.80;99.90;;;17.16;97.34;100765.56;4935708;29;20347;-79
2021/08/11 02:56:48;;;;;;;;;;;17.80;99.90;;;17.17;97.20;100772.75;4966990;28;19969;-79
2021/08/11 02:59:16;;;;;;;;;;;17.80;99.90;;;17.17;97.26;100767.25;4966991;28;20016;-81
2021/08/11 03:01:54;;;;;;;;;;;17.80;99.90;;;17.17;97.21;100767.25;4988962;28;19976;-77
2021/08/11 03:04:22;;;;;;;;;;;17.80;99.90;;;17.17;97.25;100767.25;4973899;28;19922;-77
2021/08/11 03:06:50;;;;;;;;;;;17.80;99.90;;;17.17;97.32;100770.00;4989440;28;19930;-76
2021/08/11 03:09:20;;;;;;;;;;;17.80;99.90;;;17.15;97.18;100769.38;4989625;28;19921;-77
2021/08/11 03:11:49;;;;;;;;;;;17.80;99.90;;;17.17;97.42;100772.75;4971752;28;19922;-77
2021/08/11 03:14:17;;;;;;;;;;;17.80;99.90;;;17.17;97.17;100770.00;4970413;28;20387;-76
2021/08/11 03:16:45;;;;;;;;;;;17.80;99.90;;;17.16;97.31;100761.97;4953834;28;19929;-76
2021/08/11 03:19:15;;;;;;;;;;;17.80;99.90;;;17.15;97.29;100763.88;4954430;28;19933;-77
2021/08/11 03:21:42;;;;;;;;;;;17.70;99.90;;;17.13;97.38;100768.72;4970203;28;19957;-76
2021/08/11 03:24:13;;;;;;;;;;;17.80;99.90;;;17.14;97.48;100764.09;4953370;28;19922;-77
2021/08/11 03:26:41;;;;;;;;;;;17.80;99.90;;;17.12;97.41;100764.31;4969779;28;19969;-77
2021/08/11 03:29:09;;;;;;;;;;;17.80;99.90;;;17.10;97.47;100769.19;4954045;28;20507;-77
2021/08/11 03:31:43;;;;;;;;;;;17.70;99.90;;;17.08;97.39;100768.56;4970223;28;19929;-77
2021/08/11 03:34:12;;;;;;;;;;;17.70;99.90;;;17.06;97.58;100770.72;4954258;28;19929;-77
2021/08/11 03:36:39;;;;;;;;;;;17.70;99.90;;;17.05;97.33;100768.16;4969974;28;19935;-77
2021/08/11 03:39:07;;;;;;;;;;;17.60;99.90;;;17.06;97.26;100776.22;4953835;28;19957;-77
2021/08/11 03:41:36;;;;;;;;;;;17.60;99.90;;;17.06;97.12;100770.72;4970047;28;19955;-77
2021/08/11 03:44:04;;;;;;;;;;;17.70;99.90;;;17.04;96.92;100783.84;4953838;28;19925;-77
2021/08/11 03:46:35;;;;;;;;;;;17.60;99.90;;;17.02;96.89;100774.97;4969767;28;19969;-77
2021/08/11 03:49:02;;;;;;;;;;;17.60;99.90;;;17.00;96.82;100777.06;4969717;28;19946;-77
2021/08/11 03:51:31;;;;;;;;;;;17.60;99.90;;;16.99;97.05;100775.41;4969622;28;20342;-76
2021/08/11 03:53:59;;;;;;;;;;;17.60;99.90;;;16.99;96.76;100783.66;4953738;28;19957;-77
2021/08/11 03:56:26;;;;;;;;;;;17.50;99.90;;;16.98;96.74;100784.69;4949377;28;19926;-77
2021/08/11 03:58:53;;;;;;;;;;;17.50;99.90;;;16.99;96.84;100786.41;4951822;29;19926;-77
2021/08/11 04:01:20;;;;;;;;;;;17.50;99.90;;;16.98;96.66;100787.44;4964767;28;19926;-76
2021/08/11 04:03:49;;;;;;;;;;;17.60;99.90;;;16.97;96.71;100785.78;4970108;28;19922;-77
2021/08/11 04:06:16;;;;;;;;;;;17.50;99.90;;;16.97;96.58;100780.28;4970972;28;19926;-77
2021/08/11 04:08:43;;;;;;;;;;;17.50;99.90;;;16.95;96.33;100787.91;4971133;28;20422;-77
2021/08/11 04:11:10;;;;;;;;;;;17.50;99.90;;;16.92;96.17;100791.91;4970846;28;19940;-77
2021/08/11 04:13:37;;;;;;;;;;;17.50;99.90;;;16.90;96.29;100793.22;4970469;28;19980;-77
2021/08/11 04:16:04;;;;;;;;;;;17.50;99.90;;;16.88;96.26;100789.84;4970312;28;19937;-76
2021/08/11 04:18:31;;;;;;;;;;;17.50;99.90;;;16.91;96.31;100786.66;4970921;28;20354;-77
2021/08/11 04:20:59;;;;;;;;;;;17.50;99.90;;;16.87;96.14;100782.63;4971009;28;19922;-76
2021/08/11 04:23:27;;;;;;;;;;;17.50;99.90;;;16.88;96.01;100787.09;4970907;28;19926;-76
2021/08/11 04:25:54;;;;;;;;;;;17.50;99.90;;;16.87;95.93;100780.75;4970693;28;19937;-77
2021/08/11 04:28:21;;;;;;;;;;;17.40;99.90;;;16.87;95.93;100785.38;4970807;28;19925;-77
2021/08/11 04:30:48;;;;;;;;;;;17.40;99.90;;;16.85;96.18;100780.13;4970633;28;19922;-78
2021/08/11 04:33:15;;;;;;;;;;;17.50;99.90;;;16.88;95.85;100784.34;4970700;28;19933;-81
2021/08/11 04:35:42;;;;;;;;;;;17.50;99.90;;;16.87;95.85;100783.50;4970999;28;20298;-81
2021/08/11 04:38:11;;;;;;;;;;;17.50;99.90;;;16.87;95.86;100783.50;4970447;28;19978;-81
2021/08/11 04:40:39;;;;;;;;;;;17.50;99.90;;;16.86;95.79;100786.47;4970907;28;19922;-80
2021/08/11 04:43:06;;;;;;;;;;;17.50;99.90;;;16.87;95.72;100782.63;4970771;28;19933;-81
2021/08/11 04:45:35;;;;;;;;;;;17.50;99.90;;;16.85;95.40;100784.78;4970689;28;19923;-81
2021/08/11 04:48:01;;;;;;;;;;;17.50;99.90;;;16.84;95.20;100786.69;4970099;28;19926;-81
2021/08/11 04:50:28;;;;;;;;;;;17.50;99.90;;;16.85;95.13;100782.03;4970852;28;20008;-81
2021/08/11 04:52:55;;;;;;;;;;;17.50;99.80;;;16.86;94.89;100786.47;4970442;28;19925;-81
2021/08/11 04:55:24;;;;;;;;;;;17.50;99.60;;;16.82;94.73;100788.81;4970794;28;19926;-81
2021/08/11 04:57:51;;;;;;;;;;;17.50;99.30;;;16.83;94.41;100798.75;4970165;28;19929;-81
2021/08/11 05:00:18;;;;;;;;;;;17.50;99.30;;;16.82;94.25;100799.81;4970021;28;19932;-81
2021/08/11 05:02:45;;;;;;;;;;;17.50;99.10;;;16.81;94.30;100795.31;4970444;28;19933;-81
2021/08/11 05:05:12;;;;;;;;;;;17.50;98.80;;;16.86;94.05;100797.47;4970323;28;19930;-81
2021/08/11 05:07:39;;;;;;;;;;;17.50;98.70;;;16.83;93.92;100798.75;4970068;28;19922;-81
2021/08/11 05:10:07;;;;;;;;;;;17.50;98.80;;;16.83;93.88;100797.91;4970215;28;19925;-81
2021/08/11 05:12:35;;;;;;;;;;;17.50;99.00;;;16.77;93.81;100800.44;4970220;28;19991;-81
2021/08/11 05:15:03;;;;;;;;;;;17.50;99.00;;;16.83;94.39;100800.66;4970133;28;19926;-81
2021/08/11 05:17:30;;;;;;;;;;;17.60;98.90;;;16.83;94.16;100804.25;4969964;28;19926;-81
2021/08/11 05:19:57;;;;;;;;;;;17.60;98.70;;;16.80;94.45;100810.97;4970061;28;19942;-81
2021/08/11 05:22:24;;;;;;;;;;;17.70;98.60;;;16.81;94.36;100812.69;4970151;28;19922;-80
2021/08/11 05:24:51;;;;;;;;;;;17.60;98.40;;;16.81;94.42;100806.31;4969967;28;19934;-81
2021/08/11 05:27:19;;;;;;;;;;;17.70;98.50;;;16.86;94.49;100813.97;4969518;28;19926;-80
2021/08/11 05:29:47;;;;;;;;;;;17.70;98.40;;;16.86;94.50;100812.03;4970190;28;19926;-78
2021/08/11 05:32:15;;;;;;;;;;;17.80;98.20;;;16.89;94.73;100817.13;4970334;28;19922;-78
2021/08/11 05:34:42;;;;;;;;;;;17.80;98.20;;;16.90;94.68;100810.53;4970113;28;19930;-78
2021/08/11 05:37:09;;;;;;;;;;;17.90;98.00;;;16.95;94.78;100818.16;4969894;28;19922;-78
2021/08/11 05:39:36;;;;;;;;;;;18.00;97.80;;;16.98;94.72;100828.69;4959837;28;19926;-77
2021/08/11 05:42:03;;;;;;;;;;;18.00;97.70;;;16.97;95.05;100827.84;4946557;28;20300;-78
2021/08/11 05:44:30;;;;;;;;;;;18.10;97.70;;;17.00;95.06;100826.56;4931659;29;19927;-77
2021/08/11 05:47:00;;;;;;;;;;;18.10;97.70;;;17.02;94.98;100829.97;4932669;29;19926;-78
2021/08/11 05:49:28;;;;;;;;;;;18.00;97.90;;;17.00;95.70;100826.56;4934790;29;19927;-78
2021/08/11 05:51:55;;;;;;;;;;;18.00;98.50;;;17.02;95.91;100829.97;4934966;29;19994;-77
2021/08/11 05:54:22;;;;;;;;;;;18.00;98.80;;;16.99;97.10;100838.63;4934823;29;19933;-77
2021/08/11 05:56:49;;;;;;;;;;;18.00;99.20;;;17.01;96.90;100844.75;4934460;29;20379;-77
2021/08/11 05:59:16;;;;;;;;;;;18.00;99.30;;;17.05;97.05;100839.66;4935083;29;19927;-77
2021/08/11 06:01:43;;;;;;;;;;;18.00;99.40;;;17.08;97.08;100851.06;4950477;29;19933;-77
2021/08/11 06:04:11;;;;;;;;;;;18.10;99.60;;;17.06;97.48;100852.34;4953905;29;20391;-77
2021/08/11 06:06:38;;;;;;;;;;;18.10;99.70;;;17.08;97.66;100853.81;4953316;29;19926;-77
2021/08/11 06:09:05;;;;;;;;;;;18.10;99.60;;;17.12;97.72;100854.22;4953519;29;19976;-82
2021/08/11 06:11:32;;;;;;;;;;;18.20;99.60;;;17.10;98.89;100859.94;4953405;28;20001;-81
2021/08/11 06:13:59;;;;;;;;;;;18.30;99.70;;;17.11;98.88;100860.78;4953633;29;20328;-81
2021/08/11 06:16:26;;;;;;;;;;;18.40;99.10;;;17.14;99.10;100863.09;4953351;29;20028;-81
2021/08/11 06:18:56;;;;;;;;;;;18.50;99.20;;;17.15;99.40;100862.91;4953578;29;19929;-82
2021/08/11 06:21:26;;;;;;;;;;;18.50;98.80;;;17.13;99.26;100859.50;4952045;28;19933;-82
2021/08/11 06:23:54;;;;;;;;;;;18.50;98.60;;;17.15;99.56;100868.41;4953368;29;19926;-84
2021/08/11 06:26:21;;;;;;;;;;;18.60;98.80;;;17.10;99.96;100870.13;4953196;29;20374;-81
2021/08/11 06:28:49;;;;;;;;;;;18.60;98.50;;;17.11;100.00;100872.63;4953193;29;19927;-81
2021/08/11 06:31:17;;;;;;;;;;;18.50;98.50;;;17.17;99.73;100876.41;4935979;29;19972;-81
2021/08/11 06:33:44;;;;;;;;;;;18.50;98.90;;;17.18;100.00;100872.59;4935932;29;19922;-81
2021/08/11 06:36:12;;;;;;;;;;;18.60;98.80;;;17.23;99.94;100877.44;4950904;29;19978;-81
2021/08/11 06:38:40;;;;;;;;;;;18.60;99.00;;;17.27;99.90;100876.78;4951784;29;19971;-81
2021/08/11 06:41:07;;;;;;;;;;;18.60;99.10;;;17.28;100.00;100877.63;4953071;28;20470;-82
2021/08/11 06:43:38;;;;;;;;;;;18.60;99.20;;;17.27;100.00;100876.78;4951648;29;19927;-80
2021/08/11 06:46:06;;;;;;;;;;;18.60;99.20;;;17.30;100.00;100875.50;4951323;29;19926;-81
2021/08/11 06:48:33;;;;;;;;;;;18.60;99.10;;;17.20;100.00;100870.47;4951628;28;19930;-81
2021/08/11 06:51:00;;;;;;;;;;;18.70;98.90;;;17.27;100.00;100875.94;4952808;28;19922;-79
2021/08/11 06:53:27;;;;;;;;;;;18.70;99.00;;;17.33;100.00;100883.31;4953072;29;20021;-81
2021/08/11 06:55:55;;;;;;;;;;;18.70;99.10;;;17.31;100.00;100877.19;4952890;29;19961;-82
2021/08/11 06:58:22;;;;;;;;;;;18.80;99.40;;;17.33;100.00;100875.06;4952486;28;19930;-82
2021/08/11 07:00:50;;;;;;;;;;;18.80;99.40;;;17.38;100.00;100867.84;4963573;28;19997;-80
2021/08/11 07:03:19;;;;;;;;;;;18.90;99.10;;;17.38;100.00;100877.97;4972226;28;19925;-80
2021/08/11 07:05:46;;;;;;;;;;;18.90;99.20;;;17.39;100.00;100875.00;4971928;28;19953;-79
2021/08/11 07:08:13;;;;;;;;;;;18.90;99.50;;;17.41;100.00;100877.53;4957992;28;20045;-79
2021/08/11 07:10:40;;;;;;;;;;;18.90;99.20;;;17.47;100.00;100870.31;4952598;28;20041;-77
2021/08/11 07:13:08;;;;;;;;;;;19.00;98.70;;;17.49;100.00;100877.28;4952645;29;19966;-79
2021/08/11 07:15:36;;;;;;;;;;;19.00;99.20;;;17.52;100.00;100874.09;4952506;29;20402;-79
2021/08/11 07:18:03;;;;;;;;;;;19.10;99.30;;;17.57;100.00;100882.53;4952325;29;19974;-79
2021/08/11 07:20:31;;;;;;;;;;;19.10;98.90;;;17.58;100.00;100878.69;4952359;28;20387;-79
2021/08/11 07:22:58;;;;;;;;;;;19.20;98.40;;;17.62;100.00;100879.09;4952632;28;19973;-79
2021/08/11 07:25:25;;;;;;;;;;;19.30;98.70;;;17.63;100.00;100875.31;4952554;29;19925;-79
2021/08/11 07:27:53;;;;;;;;;;;19.30;98.40;;;17.65;100.00;100889.69;4952100;28;19961;-79
2021/08/11 07:30:21;;;;;;;;;;;19.40;97.90;;;17.71;100.00;100887.94;4952277;28;20371;-79
2021/08/11 07:32:48;;;;;;;;;;;19.40;98.30;;;17.73;100.00;100885.81;4952305;29;19933;-79
2021/08/11 07:35:16;;;;;;;;;;;19.50;98.60;;;17.78;100.00;100888.72;4952273;29;19929;-79
2021/08/11 07:37:47;;;;;;;;;;;19.60;98.50;;;17.85;100.00;100895.06;4951854;29;20025;-79
2021/08/11 07:40:14;;;;;;;;;;;19.90;98.00;;;17.91;100.00;100896.91;4952198;28;19926;-81
2021/08/11 07:42:42;;;;;;;;;;;20.10;97.50;;;17.98;100.00;100900.47;4952234;29;19933;-77
2021/08/11 07:45:11;;;;;;;;;;;20.30;96.50;;;18.05;100.00;100894.91;4952116;29;19930;-80
2021/08/11 07:47:39;;;;;;;;;;;20.50;96.20;;;18.10;100.00;100899.72;4950269;29;19926;-79
2021/08/11 07:50:07;;;;;;;;;;;20.60;95.40;;;18.15;100.00;100897.16;4951838;28;19923;-79
2021/08/11 07:52:35;;;;;;;;;;;20.90;94.90;;;18.25;100.00;100910.41;4934554;29;19926;-80
2021/08/11 07:55:02;;;;;;;;;;;21.00;94.10;;;18.30;100.00;100907.84;4952080;29;20514;-79
2021/08/11 07:57:29;;;;;;;;;;;21.10;93.50;;;18.35;100.00;100908.84;4951669;28;20461;-79
2021/08/11 07:59:56;;;;;;;;;;;21.20;93.10;;;18.42;100.00;100906.00;4955444;28;20315;-81
2021/08/11 08:02:23;;;;;;;;;;;21.40;92.30;;;18.53;100.00;100902.50;4965272;28;20020;-81
2021/08/11 08:04:51;;;;;;;;;;;21.60;91.90;;;18.59;100.00;100908.19;4951828;29;20324;-81
2021/08/11 08:07:19;;;;;;;;;;;21.70;91.40;;;18.58;100.00;100910.06;4951390;29;19926;-81
2021/08/11 08:09:46;;;;;;;;;;;21.60;91.50;;;18.60;100.00;100907.97;4957126;28;19922;-81
2021/08/11 08:12:13;;;;;;;;;;;21.50;91.70;;;18.65;100.00;100910.84;4970496;28;19938;-81
2021/08/11 08:14:40;;;;;;;;;;;21.50;92.60;;;18.72;100.00;100903.34;4970939;28;20446;-80
2021/08/11 08:17:07;;;;;;;;;;;21.50;92.50;;;18.75;100.00;100905.66;4970292;28;19925;-81
2021/08/11 08:19:34;;;;;;;;;;;21.50;92.50;;;18.78;100.00;100898.00;4970307;28;19933;-81
2021/08/11 08:22:02;;;;;;;;;;;21.50;92.00;;;18.75;100.00;100900.16;4970531;28;19922;-81
2021/08/11 08:24:32;;;;;;;;;;;21.40;91.50;;;18.86;100.00;100895.81;4970017;28;19921;-81
2021/08/11 08:26:59;;;;;;;;;;;21.50;92.20;;;18.92;100.00;100889.38;4969781;28;19933;-81
2021/08/11 08:29:26;;;;;;;;;;;21.60;92.10;;;18.99;100.00;100897.56;4970901;28;20338;-81
2021/08/11 08:31:53;;;;;;;;;;;21.60;92.30;;;19.00;100.00;100902.03;4970575;28;20020;-81
2021/08/11 08:34:21;;;;;;;;;;;21.60;91.60;;;19.02;100.00;100894.34;4969313;28;20303;-81
2021/08/11 08:36:48;;;;;;;;;;;21.70;91.30;;;19.07;100.00;100902.75;4970281;28;20291;-81
2021/08/11 08:39:16;;;;;;;;;;;21.80;91.00;;;19.12;100.00;100894.63;4970179;28;19926;-80
2021/08/11 08:41:45;;;;;;;;;;;21.80;91.40;;;19.25;100.00;100898.31;4970244;28;19930;-81
2021/08/11 08:44:13;;;;;;;;;;;22.00;91.20;;;19.31;100.00;100892.69;4970364;28;20008;-81
2021/08/11 08:46:43;;;;;;;;;;;22.10;90.00;;;19.37;99.71;100901.94;4970140;28;19977;-81
2021/08/11 08:49:10;;;;;;;;;;;22.20;89.40;;;19.48;99.98;100897.56;4970293;28;20032;-79
2021/08/11 08:51:43;;;;;;;;;;;22.30;89.50;;;19.50;98.54;100896.25;4970151;28;20036;-78
2021/08/11 08:54:10;;;;;;;;;;;22.30;88.50;;;19.53;96.26;100900.44;4968992;28;19945;-79
2021/08/11 08:56:39;;;;;;;;;;;22.30;87.70;;;19.58;97.99;100900.59;4969988;28;20394;-80
2021/08/11 08:59:06;;;;;;;;;;;22.30;88.40;;;19.60;96.23;100897.59;4970297;28;19926;-80
2021/08/11 09:01:34;;;;;;;;;;;22.40;87.70;;;19.69;98.40;100898.94;4970233;28;19941;-80
2021/08/11 09:04:01;;;;;;;;;;;22.40;88.60;;;19.69;95.82;100898.94;4970266;28;20016;-80
2021/08/11 09:06:32;;;;;;;;;;;22.50;87.70;;;19.64;92.76;100898.81;4969950;28;19926;-81
2021/08/11 09:09:04;;;;;;;;;;;22.40;86.40;;;19.65;92.12;100897.75;4970185;28;19987;-80
2021/08/11 09:11:32;;;;;;;;;;;22.40;85.20;;;19.71;93.28;100897.63;4970122;28;19922;-81
2021/08/11 09:14:25;;;;;;;;;;;22.40;86.50;;;19.82;94.62;100898.78;4970245;28;19926;-81
2021/08/11 09:16:54;;;;;;;;;;;22.40;86.80;;;19.95;94.70;100905.16;4969947;28;20330;-81
2021/08/11 09:19:22;;;;;;;;;;;22.50;87.10;;;20.00;94.22;100897.00;4970250;28;20423;-81
2021/08/11 09:22:03;;;;;;;;;;;22.60;87.00;;;20.03;92.12;100894.59;4970745;28;19926;-81
2021/08/11 09:24:33;;;;;;;;;;;22.60;85.90;;;20.07;90.71;100886.69;4973858;28;20350;-81
2021/08/11 09:27:15;;;;;;;;;;;22.60;85.30;;;20.05;89.26;100891.63;4973284;28;19933;-81
2021/08/11 09:32:57;;;;;;;;;;;22.60;85.90;;;20.15;90.99;100896.53;5106859;27;19942;-80
2021/08/11 09:35:27;;;;;;;;;;;22.60;85.30;;;20.21;90.36;100896.41;5107030;28;20426;-80
2021/08/11 09:37:55;;;;;;;;;;;22.80;84.80;;;20.21;89.91;100895.59;5106710;28;20031;-81
2021/08/11 09:40:24;;;;;;;;;;;22.80;84.60;;;20.20;89.66;100894.75;5106940;28;19931;-80
2021/08/11 09:43:00;;;;;;;;;;;22.80;84.50;;;20.14;89.82;100894.84;5106893;28;19931;-80
2021/08/11 09:45:28;;;;;;;;;;;22.80;84.60;;;20.13;90.26;100899.53;5106911;28;20012;-79
2021/08/11 09:48:03;;;;;;;;;;;22.80;84.90;;;20.13;88.78;100894.00;5106255;28;19981;-81
2021/08/11 09:50:35;;;;;;;;;;;22.90;83.10;;;20.15;90.46;100880.78;5106523;28;19971;-81
2021/08/11 09:53:03;;;;;;;;;;;22.90;84.20;;;20.20;91.90;100894.75;5106650;28;20339;-81
2021/08/11 09:55:30;;;;;;;;;;;22.90;84.20;;;20.18;88.65;100890.53;5106631;28;19967;-81
2021/08/11 09:57:57;;;;;;;;;;;22.80;83.40;;;20.16;90.39;100899.03;5101039;22;20019;-79
2021/08/11 10:00:25;;;;;;;;;;;22.80;84.70;;;20.13;88.52;100899.53;5065847;28;20356;-78
2021/08/11 10:03:04;;;;;;;;;;;22.70;83.90;;;20.15;90.58;100904.84;5064148;28;20037;-79
2021/08/11 10:05:35;;;;;;;;;;;22.70;85.00;;;20.17;89.61;100908.19;5085917;28;19928;-78
2021/08/11 10:08:03;;;;;;;;;;;22.70;84.60;;;20.15;90.03;100902.91;5084354;28;19928;-77
2021/08/11 10:10:47;;;;;;;;;;;22.70;84.80;;;20.17;90.47;100905.44;5086248;28;19928;-79
2021/08/11 10:13:18;;;;;;;;;;;22.80;84.80;;;20.14;89.90;100901.22;5086209;28;19928;-78
2021/08/11 10:15:46;;;;;;;;;;;22.80;84.80;;;20.14;88.51;100912.25;5085940;28;20358;-79
2021/08/11 10:18:18;;;;;;;;;;;22.90;83.30;;;20.20;90.83;100903.03;5062505;28;19936;-80
2021/08/11 10:20:47;;;;;;;;;;;23.00;84.20;;;20.29;87.77;100909.88;5055150;28;19956;-81
2021/08/11 10:23:16;;;;;;;;;;;23.10;82.30;;;20.36;86.81;100908.94;5062578;28;19936;-80
2021/08/11 10:25:46;;;;;;;;;;;23.20;81.60;;;20.42;85.63;100919.84;5063087;28;19935;-78
2021/08/11 10:28:13;;;;;;;;;;;23.20;80.80;;;20.43;84.27;100912.44;5045264;28;19925;-79
2021/08/11 10:30:40;;;;;;;;;;;23.10;80.70;;;20.41;87.90;100917.31;5043877;28;19929;-80
2021/08/11 10:33:09;;;;;;;;;;;23.00;82.50;;;20.41;86.98;100912.66;5045677;28;19966;-80
2021/08/11 10:35:39;;;;;;;;;;;23.00;82.40;;;20.39;84.73;100913.97;5045440;28;20429;-80
2021/08/11 10:38:06;;;;;;;;;;;23.00;81.20;;;20.38;85.52;100912.31;5045083;28;20386;-79
2021/08/11 10:40:34;;;;;;;;;;;23.10;81.30;;;20.39;85.08;100908.44;5045221;28;20665;-80
2021/08/11 10:43:02;;;;;;;;;;;23.10;80.90;;;20.37;83.92;100905.06;5037212;28;19929;-79
2021/08/11 10:45:30;;;;;;;;;;;23.10;80.20;;;20.37;82.92;100910.59;5032094;28;19983;-81
2021/08/11 10:47:57;;;;;;;;;;;23.00;79.70;;;20.38;82.90;100915.06;5047258;28;19935;-81
2021/08/11 10:50:41;;;;;;;;;;;23.10;79.60;;;20.38;82.41;100913.13;5051807;28;19982;-81
2021/08/11 10:53:10;;;;;;;;;;;23.10;78.90;;;20.40;82.75;100916.50;5051801;28;20015;-81
2021/08/11 10:55:45;;;;;;;;;;;23.20;80.00;;;20.44;81.83;100911.31;5051805;28;20431;-81
2021/08/11 10:58:28;;;;;;;;;;;23.20;78.80;;;20.44;81.61;100916.84;5051232;28;20411;-81
2021/08/11 11:00:55;;;;;;;;;;;23.10;78.40;;;20.41;80.52;100922.84;5048293;28;19932;-79
2021/08/11 11:03:50;;;;;;;;;;;23.00;79.40;;;20.38;78.38;100939.94;5049299;28;19928;-79
2021/08/11 11:06:18;;;;;;;;;;;23.00;78.40;;;20.36;78.48;100931.06;5038628;28;19929;-81
2021/08/11 11:08:48;;;;;;;;;;;23.00;78.10;;;20.37;82.90;100929.94;5043112;28;19937;-80
2021/08/11 11:11:34;;;;;;;;;;;22.90;79.80;;;20.38;82.72;100923.34;5046251;28;20019;-80
2021/08/11 11:14:02;;;;;;;;;;;23.00;79.90;;;20.34;83.02;100925.75;5044829;28;19929;-80
2021/08/11 11:17:00;;;;;;;;;;;22.90;80.10;;;20.37;82.56;100919.75;5051191;28;19929;-80
2021/08/11 11:19:28;;;;;;;;;;;22.90;79.50;;;20.47;82.37;100913.63;5050966;28;19971;-80